HSSJ

Juba International Airport

Juba, South Sudan
METAR HSSJ 200900Z 06005KT 9999 SCT040 32/15 Q1010
Observed Flight Rules
Feb-20 @ 09:00 UTC (8 hours ago) Visual Flight Rules
Wind Visibility Clouds
60° at 5 knots 10,000+ meters
  • Scattered at 4,000' AGL
Temperatures Readings
Current 32°C / 90°F
Dewpoint 15°C / 59°F
Humidity 36%
Altimeter 29.82" Hg
Pressure 1010 hPa
Elevation 457
METAR HSSJ 200900Z 06005KT 9999 SCT040 32/15 Q1010
Observed Flight Rules
Feb-20 @ 09:00 UTC
(8 hours ago)
VFR
Wind Visibility
60° at 5 knots 10,000+ meters
Clouds
  • Scattered at 4,000' AGL
Temperature Dewpoint
32°C / 90°F 15°C / 59°F
Humidity Altimeter Pressure
36% 29.82" Hg 1010 hPa